Time;durP1;ratioP1;P1;durP2;ratioP2;P2;SDS_P1;SDS_P2;PMS_P1;PMS_P2;Temp;Humidity;BMP_temperature;BMP_pressure;BME280_temperature;BME280_humidity;BME280_pressure;Samples;Min_cycle;Max_cycle;Signal;HPM_P1;HPM_P2
2023/06/14 00:01:13;;;;;;;;;;;;;;;-144.99;95.79;52126.06;5073080;28;20480;-70
2023/06/14 00:03:40;;;;;;;;;;;;;;;-144.99;95.81;52142.38;5075338;28;19957;-70
2023/06/14 00:06:06;;;;;;;;;;;;;;;-144.99;95.71;52117.91;5086485;28;20385;-70
2023/06/14 00:08:33;;;;;;;;;;;;;;;-144.99;95.46;52101.59;5084138;28;19940;-63
2023/06/14 00:11:01;;;;;;;;;;;;;;;-144.99;95.74;52101.59;5083017;28;19941;-65
2023/06/14 00:13:28;;;;;;;;;;;;;;;-144.99;96.10;52138.28;5084689;28;20002;-66
2023/06/14 00:15:55;;;;;;;;;;;;;;;-144.99;96.34;52132.19;5077884;28;19934;-65
2023/06/14 00:18:23;;;;;;;;;;;;;;;-144.99;95.83;52162.75;5075473;28;20019;-65
2023/06/14 00:20:51;;;;;;;;;;;;;;;-144.99;95.15;52113.84;5076561;28;19950;-63
2023/06/14 00:23:17;;;;;;;;;;;;;;;-144.99;95.48;52146.44;5080195;28;20052;-63
2023/06/14 00:25:44;;;;;;;;;;;;;;;-144.99;96.37;52172.94;5078467;28;19959;-63
2023/06/14 00:28:12;;;;;;;;;;;;;;;-144.99;96.68;52138.28;5079783;28;19940;-62
2023/06/14 00:30:39;;;;;;;;;;;;;;;-144.99;97.11;52199.44;5072560;28;19969;-63
2023/06/14 00:33:05;;;;;;;;;;;;;;;-144.99;97.13;52121.97;5075685;28;20419;-62
2023/06/14 00:35:32;;;;;;;;;;;;;;;-144.99;97.20;52117.91;5083773;28;20112;-61
2023/06/14 00:37:59;;;;;;;;;;;;;;;-144.99;97.06;52132.19;5082915;28;19961;-61
2023/06/14 00:40:26;;;;;;;;;;;;;;;-144.99;97.56;52128.09;5071058;28;19956;-61
2023/06/14 00:42:52;;;;;;;;;;;;;;;-144.99;97.68;52109.75;5085650;28;19959;-61
2023/06/14 00:45:20;;;;;;;;;;;;;;;-144.99;97.76;52174.97;5075093;28;20404;-61
2023/06/14 00:47:47;;;;;;;;;;;;;;;-144.99;97.89;52146.44;5073444;28;20481;-61
2023/06/14 00:50:14;;;;;;;;;;;;;;;-144.99;97.55;52126.06;5081889;28;19966;-65
2023/06/14 00:52:41;;;;;;;;;;;;;;;-144.99;97.36;52097.53;5076207;28;20436;-66
2023/06/14 00:55:07;;;;;;;;;;;;;;;-144.99;96.94;52162.75;5073733;28;19956;-65
2023/06/14 00:57:37;;;;;;;;;;;;;;;-144.99;97.64;52140.31;5079919;28;19948;-65
2023/06/14 01:00:08;;;;;;;;;;;;;;;-144.99;98.16;52121.97;5073351;28;20020;-65
2023/06/14 01:02:37;;;;;;;;;;;;;;;-144.99;98.50;52121.97;5073236;28;20038;-65
2023/06/14 01:05:05;;;;;;;;;;;;;;;-144.99;97.24;52117.91;5080279;28;19976;-65
2023/06/14 01:07:39;;;;;;;;;;;;;;;-144.99;97.36;52134.22;5075143;28;19962;-64
2023/06/14 01:10:13;;;;;;;;;;;;;;;-144.99;98.65;52142.38;5078759;28;20032;-65
2023/06/14 01:12:43;;;;;;;;;;;;;;;-144.99;99.27;52174.97;5081799;28;19961;-65
2023/06/14 01:15:11;;;;;;;;;;;;;;;-144.99;99.64;52124.03;5076093;28;19935;-65
2023/06/14 01:17:41;;;;;;;;;;;;;;;-144.99;99.25;52142.38;5073172;28;20052;-65
2023/06/14 01:20:10;;;;;;;;;;;;;;;-144.99;99.02;52146.44;5074237;28;19956;-69
2023/06/14 01:22:37;;;;;;;;;;;;;;;-144.99;99.90;52146.44;5074370;28;19972;-67
2023/06/14 01:25:05;;;;;;;;;;;;;;;-144.99;99.71;52107.72;5071367;28;20005;-65
2023/06/14 01:27:32;;;;;;;;;;;;;;;-144.99;100.00;52146.44;5076041;28;19986;-64
2023/06/14 01:30:02;;;;;;;;;;;;;;;-144.99;99.16;52158.66;5074381;28;19960;-64
2023/06/14 01:32:29;;;;;;;;;;;;;;;-144.99;99.03;52134.22;5069788;28;20396;-64
2023/06/14 01:34:56;;;;;;;;;;;;;;;-144.99;99.43;52158.66;5071796;28;20307;-64
2023/06/14 01:37:22;;;;;;;;;;;;;;;-144.99;99.80;52126.06;5071214;28;19963;-64
2023/06/14 01:39:50;;;;;;;;;;;;;;;-144.99;100.00;52162.75;5078207;28;19986;-65
2023/06/14 01:42:18;;;;;;;;;;;;;;;-144.99;100.00;52148.47;5082453;28;19978;-65
2023/06/14 01:44:45;;;;;;;;;;;;;;;-144.99;99.83;52146.44;5066323;28;19935;-65
2023/06/14 01:47:13;;;;;;;;;;;;;;;-144.99;100.00;52166.81;5080291;28;19964;-64
2023/06/14 01:49:39;;;;;;;;;;;;;;;-144.99;100.00;52146.44;5071398;28;19976;-64
2023/06/14 01:52:09;;;;;;;;;;;;;;;-144.99;100.00;52156.63;5074393;28;19963;-65
2023/06/14 01:54:37;;;;;;;;;;;;;;;-144.99;100.00;52138.28;5071260;28;19950;-66
2023/06/14 01:57:04;;;;;;;;;;;;;;;-144.99;100.00;52130.13;5067682;28;19951;-66
2023/06/14 01:59:34;;;;;;;;;;;;;;;-144.99;100.00;52183.13;5079423;28;19958;-66
2023/06/14 02:02:01;;;;;;;;;;;;;;;-144.99;100.00;52134.22;5070174;28;20051;-65
2023/06/14 02:04:28;;;;;;;;;;;;;;;-144.99;100.00;52154.59;5083205;28;19938;-66
2023/06/14 02:06:54;;;;;;;;;;;;;;;-144.99;100.00;52146.44;5082073;28;19940;-67
2023/06/14 02:09:21;;;;;;;;;;;;;;;-144.99;100.00;52130.13;5078073;28;20329;-66
2023/06/14 02:11:47;;;;;;;;;;;;;;;-144.99;100.00;52146.44;5084583;28;20301;-66
2023/06/14 02:14:14;;;;;;;;;;;;;;;-144.99;100.00;52142.38;5072691;28;19948;-64
2023/06/14 02:16:48;;;;;;;;;;;;;;;-144.99;100.00;52130.13;5077684;28;20455;-64
2023/06/14 02:19:15;;;;;;;;;;;;;;;-144.99;100.00;52126.06;5079579;28;20144;-64
2023/06/14 02:21:41;;;;;;;;;;;;;;;-144.99;100.00;52109.75;5077489;28;20340;-64
2023/06/14 02:24:08;;;;;;;;;;;;;;;-144.99;100.00;52183.13;5080191;28;19992;-64
2023/06/14 02:26:35;;;;;;;;;;;;;;;-144.99;100.00;52154.59;5078682;28;19939;-64
2023/06/14 02:29:01;;;;;;;;;;;;;;;-144.99;100.00;52126.06;5076781;28;20076;-65
2023/06/14 02:31:29;;;;;;;;;;;;;;;-144.99;100.00;52130.13;5085823;28;19924;-65
2023/06/14 02:33:56;;;;;;;;;;;;;;;-144.99;100.00;52154.59;5074839;28;19998;-63
2023/06/14 02:36:24;;;;;;;;;;;;;;;-144.99;100.00;52134.22;5084158;28;19939;-62
2023/06/14 02:38:50;;;;;;;;;;;;;;;-144.99;100.00;52162.75;5075863;28;19933;-61
2023/06/14 02:41:17;;;;;;;;;;;;;;;-144.99;100.00;52097.53;5078307;28;19924;-62
2023/06/14 02:43:44;;;;;;;;;;;;;;;-144.99;100.00;52152.56;5074277;28;19965;-62
2023/06/14 02:46:11;;;;;;;;;;;;;;;-144.99;100.00;52105.69;5081580;28;19981;-64
2023/06/14 02:48:37;;;;;;;;;;;;;;;-144.99;100.00;52130.13;5082863;28;20040;-64
2023/06/14 02:51:06;;;;;;;;;;;;;;;-144.99;100.00;52170.91;5087372;28;20329;-64
2023/06/14 02:53:32;;;;;;;;;;;;;;;-144.99;100.00;52126.06;5071451;28;19990;-65
2023/06/14 02:55:59;;;;;;;;;;;;;;;-144.99;100.00;52158.66;5075121;28;20089;-64
2023/06/14 02:58:26;;;;;;;;;;;;;;;-144.99;100.00;52172.94;5071096;28;19944;-64
2023/06/14 03:00:53;;;;;;;;;;;;;;;-144.99;100.00;52158.66;5075898;28;19955;-63
2023/06/14 03:03:21;;;;;;;;;;;;;;;-144.99;100.00;52148.47;5084030;28;19969;-64
2023/06/14 03:05:49;;;;;;;;;;;;;;;-144.99;100.00;52130.13;5078661;28;20295;-63
2023/06/14 03:08:19;;;;;;;;;;;;;;;-144.99;100.00;52146.44;5080910;28;20007;-64
2023/06/14 03:10:46;;;;;;;;;;;;;;;-144.99;100.00;52105.69;5071863;28;19962;-66
2023/06/14 03:13:13;;;;;;;;;;;;;;;-144.99;100.00;52103.66;5081678;28;20144;-66
2023/06/14 03:15:41;;;;;;;;;;;;;;;-144.99;100.00;52128.09;5075384;28;19941;-67
2023/06/14 03:18:09;;;;;;;;;;;;;;;-144.99;100.00;52121.97;5081520;28;19942;-67
2023/06/14 03:20:35;;;;;;;;;;;;;;;-144.99;100.00;52130.13;5075704;28;20384;-67
2023/06/14 03:23:03;;;;;;;;;;;;;;;-144.99;100.00;52138.28;5077447;28;20052;-67
2023/06/14 03:25:31;;;;;;;;;;;;;;;-144.99;100.00;52150.53;5076760;28;20362;-67
2023/06/14 03:27:58;;;;;;;;;;;;;;;-144.99;100.00;52142.38;5077582;28;20330;-64
2023/06/14 03:30:24;;;;;;;;;;;;;;;-144.99;100.00;52158.66;5080843;28;19960;-64
2023/06/14 03:32:51;;;;;;;;;;;;;;;-144.99;100.00;52142.38;5084723;28;19938;-64
2023/06/14 03:35:18;;;;;;;;;;;;;;;-144.99;100.00;52160.72;5071198;28;19962;-64
2023/06/14 03:37:45;;;;;;;;;;;;;;;-144.99;100.00;52146.44;5074933;28;20481;-66
2023/06/14 03:40:13;;;;;;;;;;;;;;;-144.99;100.00;52117.91;5073051;28;20355;-67
2023/06/14 03:42:41;;;;;;;;;;;;;;;-144.99;100.00;52146.44;5073058;28;19941;-68
2023/06/14 03:45:08;;;;;;;;;;;;;;;-144.99;100.00;52126.06;5076399;28;19946;-63
2023/06/14 03:47:35;;;;;;;;;;;;;;;-144.99;100.00;52152.56;5083097;28;20286;-64
2023/06/14 03:50:02;;;;;;;;;;;;;;;-144.99;100.00;52152.56;5075238;28;20416;-64
2023/06/14 03:52:29;;;;;;;;;;;;;;;-144.99;100.00;52138.28;5079751;28;20031;-64
2023/06/14 03:54:56;;;;;;;;;;;;;;;-144.99;100.00;52130.13;5072624;28;19957;-63
2023/06/14 03:57:22;;;;;;;;;;;;;;;-144.99;100.00;52146.44;5073744;28;19964;-63
2023/06/14 03:59:50;;;;;;;;;;;;;;;-144.99;100.00;52146.44;5076927;28;19965;-63
2023/06/14 04:02:17;;;;;;;;;;;;;;;-144.99;100.00;52130.13;5083516;28;19931;-63
2023/06/14 04:04:45;;;;;;;;;;;;;;;-144.99;100.00;52101.59;5074694;28;20005;-64
2023/06/14 04:07:12;;;;;;;;;;;;;;;-144.99;100.00;52146.44;5078267;28;19937;-66
2023/06/14 04:09:38;;;;;;;;;;;;;;;-144.99;100.00;52158.66;5080027;28;20529;-66
2023/06/14 04:12:06;;;;;;;;;;;;;;;-144.99;100.00;52154.59;5073508;28;20366;-65
2023/06/14 04:14:33;;;;;;;;;;;;;;;-144.99;100.00;52126.06;5074034;28;19945;-66
2023/06/14 04:17:01;;;;;;;;;;;;;;;-144.99;100.00;52093.44;5080720;28;19955;-66
2023/06/14 04:19:27;;;;;;;;;;;;;;;-144.99;100.00;52154.59;5069583;28;19966;-66
2023/06/14 04:21:54;;;;;;;;;;;;;;;-144.99;100.00;52146.44;5082331;28;19943;-66
2023/06/14 04:24:21;;;;;;;;;;;;;;;-144.99;100.00;52130.13;5071771;28;19974;-65
2023/06/14 04:26:49;;;;;;;;;;;;;;;-144.99;100.00;52109.75;5083981;28;19965;-71
2023/06/14 04:29:16;;;;;;;;;;;;;;;-144.99;100.00;52117.91;5072767;28;20020;-65
2023/06/14 04:31:44;;;;;;;;;;;;;;;-144.99;100.00;52097.53;5074618;28;20548;-66
2023/06/14 04:34:16;;;;;;;;;;;;;;;-144.99;100.00;52134.22;5079215;28;20046;-66
2023/06/14 04:36:49;;;;;;;;;;;;;;;-144.99;100.00;52113.84;5081902;28;19970;-66
2023/06/14 04:39:16;;;;;;;;;;;;;;;-144.99;100.00;52142.38;5073911;28;20457;-65
2023/06/14 04:41:42;;;;;;;;;;;;;;;-144.99;100.00;52089.38;5074474;28;19948;-65
2023/06/14 04:44:09;;;;;;;;;;;;;;;-144.99;100.00;52138.28;5071139;28;20341;-67
2023/06/14 04:46:45;;;;;;;;;;;;;;;-144.99;100.00;52093.44;5076711;28;19943;-68
2023/06/14 04:49:14;;;;;;;;;;;;;;;-144.99;100.00;52093.44;5070667;28;20031;-66
2023/06/14 04:51:41;;;;;;;;;;;;;;;-144.99;100.00;52148.47;5069027;28;20021;-67
2023/06/14 04:54:10;;;;;;;;;;;;;;;-144.99;100.00;52154.59;5076582;28;19943;-68
2023/06/14 04:56:37;;;;;;;;;;;;;;;-144.99;100.00;52150.53;5066963;28;19978;-68
2023/06/14 04:59:04;;;;;;;;;;;;;;;-144.99;100.00;52101.59;5073538;28;20415;-67
2023/06/14 05:01:31;;;;;;;;;;;;;;;-144.99;100.00;52089.38;5072119;28;19940;-63
2023/06/14 05:03:58;;;;;;;;;;;;;;;-144.99;99.41;52121.97;5075396;28;20616;-62
2023/06/14 05:06:27;;;;;;;;;;;;;;;-144.99;99.31;52089.38;5070933;28;20045;-62
2023/06/14 05:08:53;;;;;;;;;;;;;;;-144.99;99.05;52138.28;5080051;28;20403;-63
2023/06/14 05:11:20;;;;;;;;;;;;;;;-144.99;97.88;52089.38;5070274;28;19950;-61
2023/06/14 05:13:47;;;;;;;;;;;;;;;-144.99;96.86;52073.06;5076517;28;19946;-62
2023/06/14 05:16:15;;;;;;;;;;;;;;;-144.99;96.70;52087.34;4391273;28;10000837;-63
2023/06/14 05:18:42;;;;;;;;;;;;;;;-144.99;95.60;52085.31;5075617;28;19986;-62
2023/06/14 05:21:08;;;;;;;;;;;;;;;-144.99;95.58;52093.44;5072274;28;19963;-63
2023/06/14 05:23:36;;;;;;;;;;;;;;;-144.99;95.62;52105.69;5073708;28;19962;-62
2023/06/14 05:26:04;;;;;;;;;;;;;;;-144.99;95.32;52087.34;5068180;28;20299;-62
2023/06/14 05:28:31;;;;;;;;;;;;;;;-144.99;93.91;52107.72;5072847;28;20011;-62
2023/06/14 05:30:59;;;;;;;;;;;;;;;-144.99;93.19;52134.22;5068621;28;19938;-62
2023/06/14 05:33:25;;;;;;;;;;;;;;;-144.99;93.31;52097.53;5070138;28;19963;-62
2023/06/14 05:35:52;;;;;;;;;;;;;;;-144.99;93.29;52083.25;5063767;28;19974;-62
2023/06/14 05:38:18;;;;;;;;;;;;;;;-144.99;92.93;52101.59;5071711;28;19951;-62
2023/06/14 05:40:46;;;;;;;;;;;;;;;-144.99;92.53;52081.22;5066809;28;20266;-62
2023/06/14 05:43:13;;;;;;;;;;;;;;;-144.99;92.20;52109.75;5064511;28;20416;-63
2023/06/14 05:45:40;;;;;;;;;;;;;;;-144.99;91.56;52097.53;5075454;28;19939;-62
2023/06/14 05:48:06;;;;;;;;;;;;;;;-144.99;90.75;52073.06;5081263;28;19944;-61
2023/06/14 05:50:33;;;;;;;;;;;;;;;-144.99;90.36;52111.78;5084779;28;20481;-62
2023/06/14 05:53:00;;;;;;;;;;;;;;;-144.99;89.62;52101.59;5082101;28;20191;-62
2023/06/14 05:55:26;;;;;;;;;;;;;;;-144.99;88.90;52083.25;5083143;28;19943;-63
2023/06/14 05:57:54;;;;;;;;;;;;;;;-144.99;88.56;52071.03;5069321;28;19950;-62
2023/06/14 06:00:22;;;;;;;;;;;;;;;-144.99;88.25;52107.72;5075313;28;19968;-62
2023/06/14 06:02:48;;;;;;;;;;;;;;;-144.99;87.77;52093.44;5076119;28;19948;-63
2023/06/14 06:05:16;;;;;;;;;;;;;;;-144.99;86.94;52077.16;5069201;28;19984;-63
2023/06/14 06:07:44;;;;;;;;;;;;;;;-144.99;86.98;52077.16;5073600;28;20240;-62
2023/06/14 06:10:11;;;;;;;;;;;;;;;-144.99;86.77;52062.88;5075079;28;20363;-63
2023/06/14 06:12:37;;;;;;;;;;;;;;;-144.99;85.89;52073.06;5068431;28;20368;-62
2023/06/14 06:15:07;;;;;;;;;;;;;;;-144.99;84.82;52060.84;5077834;28;19946;-62
2023/06/14 06:17:34;;;;;;;;;;;;;;;-144.99;83.83;52052.69;5077422;28;20193;-62
2023/06/14 06:20:01;;;;;;;;;;;;;;;-144.99;83.35;52105.69;5082353;28;20497;-62
2023/06/14 06:22:27;;;;;;;;;;;;;;;-144.99;82.76;52069.00;5081952;28;19980;-63
2023/06/14 06:24:54;;;;;;;;;;;;;;;-144.99;82.23;52056.78;5081952;28;20310;-63
2023/06/14 06:27:20;;;;;;;;;;;;;;;-144.99;81.54;52081.22;5078131;28;19965;-62
2023/06/14 06:29:48;;;;;;;;;;;;;;;-144.99;81.02;52109.75;5071979;28;19976;-62
2023/06/14 06:32:16;;;;;;;;;;;;;;;-144.99;80.12;52060.84;5071600;28;19956;-62
2023/06/14 06:34:42;;;;;;;;;;;;;;;-144.99;80.31;52109.75;5071494;28;19945;-63
2023/06/14 06:37:09;;;;;;;;;;;;;;;-144.99;79.62;52064.91;5075884;28;20299;-63
2023/06/14 06:39:36;;;;;;;;;;;;;;;-144.99;78.94;52052.69;5077586;28;20491;-62
2023/06/14 06:42:02;;;;;;;;;;;;;;;-144.99;78.33;52066.97;5081056;28;19942;-63
2023/06/14 06:44:29;;;;;;;;;;;;;;;-144.99;77.83;52064.91;5082228;28;19987;-63
2023/06/14 06:46:56;;;;;;;;;;;;;;;-144.99;76.50;52064.91;5076575;28;19943;-62
2023/06/14 06:49:24;;;;;;;;;;;;;;;-144.99;76.22;52085.31;5078216;28;20343;-62
2023/06/14 06:52:00;;;;;;;;;;;;;;;-144.99;75.73;52064.91;5072036;28;19946;-63
2023/06/14 06:54:27;;;;;;;;;;;;;;;-144.99;75.38;52097.53;4720989;28;9999730;-63
2023/06/14 06:56:53;;;;;;;;;;;;;;;-144.99;73.95;52040.47;5073611;28;19947;-62
2023/06/14 06:59:20;;;;;;;;;;;;;;;-144.99;75.09;52036.38;5072546;28;20038;-63
2023/06/14 07:01:47;;;;;;;;;;;;;;;-144.99;74.89;52093.44;5070268;28;20329;-62
2023/06/14 07:04:14;;;;;;;;;;;;;;;-144.99;74.47;52048.63;5074855;28;20188;-63
2023/06/14 07:06:42;;;;;;;;;;;;;;;-144.99;74.73;52064.91;5074143;28;19947;-62
2023/06/14 07:09:12;;;;;;;;;;;;;;;-144.99;74.37;52085.31;5076939;28;20435;-62
2023/06/14 07:11:39;;;;;;;;;;;;;;;-144.99;74.16;52044.53;5073900;28;19954;-62
2023/06/14 07:14:05;;;;;;;;;;;;;;;-144.99;74.15;52050.66;5080273;28;19943;-62
2023/06/14 07:16:32;;;;;;;;;;;;;;;-144.99;73.51;52060.84;5082424;28;19955;-62
2023/06/14 07:19:00;;;;;;;;;;;;;;;-144.99;73.36;52064.91;5077127;28;20364;-62
2023/06/14 07:24:31;;;;;;;;;;;;;;;-144.99;72.79;52064.91;5070051;28;19963;-62
2023/06/14 07:26:57;;;;;;;;;;;;;;;-144.99;72.22;52048.63;5071426;28;20002;-62
2023/06/14 07:29:24;;;;;;;;;;;;;;;-144.99;71.62;52052.69;5069135;28;19972;-62
2023/06/14 07:31:50;;;;;;;;;;;;;;;-144.99;71.64;52093.44;5074976;28;20481;-62
2023/06/14 07:34:17;;;;;;;;;;;;;;;-144.99;71.24;52077.16;5079215;28;20020;-62
2023/06/14 07:36:44;;;;;;;;;;;;;;;-144.99;71.24;52062.88;5076339;28;19942;-62
2023/06/14 07:39:11;;;;;;;;;;;;;;;-144.99;70.71;52040.47;5075939;28;19958;-63
2023/06/14 07:41:39;;;;;;;;;;;;;;;-144.99;70.77;52064.91;5076689;28;19943;-62
2023/06/14 07:44:06;;;;;;;;;;;;;;;-144.99;69.85;52028.22;5077510;28;19970;-63
2023/06/14 07:46:45;;;;;;;;;;;;;;;-144.99;69.64;52071.03;5076607;28;19946;-62
2023/06/14 07:49:12;;;;;;;;;;;;;;;-144.99;69.62;52022.13;5081059;28;19956;-62
2023/06/14 07:51:39;;;;;;;;;;;;;;;-144.99;70.11;52024.16;5072747;28;19941;-62
2023/06/14 07:54:07;;;;;;;;;;;;;;;-144.99;69.75;52060.84;5080805;28;19943;-63
2023/06/14 07:56:33;;;;;;;;;;;;;;;-144.99;69.02;52040.47;5070379;28;19967;-63
2023/06/14 07:59:02;;;;;;;;;;;;;;;-144.99;69.35;52048.63;5075604;28;19958;-63
2023/06/14 08:01:28;;;;;;;;;;;;;;;-144.99;69.77;52060.84;5078339;28;19947;-63
2023/06/14 08:03:55;;;;;;;;;;;;;;;-144.99;69.19;52030.28;5072636;28;19946;-63
2023/06/14 08:06:22;;;;;;;;;;;;;;;-144.99;68.85;52032.31;5064715;28;19944;-63
2023/06/14 08:08:49;;;;;;;;;;;;;;;-144.99;69.43;52016.00;5073481;28;19954;-63
2023/06/14 08:11:15;;;;;;;;;;;;;;;-144.99;68.54;52052.69;5069627;28;19949;-63
2023/06/14 08:13:42;;;;;;;;;;;;;;;-144.99;67.83;52020.09;5072709;28;20354;-63
2023/06/14 08:16:10;;;;;;;;;;;;;;;-144.99;68.50;52044.53;5075710;28;20347;-63
2023/06/14 08:18:37;;;;;;;;;;;;;;;-144.99;68.29;52040.47;5068124;28;20374;-63
2023/06/14 08:21:19;;;;;;;;;;;;;;;-144.99;67.58;52011.94;5070281;28;19957;-63
2023/06/14 08:23:46;;;;;;;;;;;;;;;-144.99;67.48;51987.47;5074447;28;19955;-63
2023/06/14 08:26:12;;;;;;;;;;;;;;;-144.99;67.41;52034.34;5073158;28;19958;-63
2023/06/14 08:28:39;;;;;;;;;;;;;;;-144.99;67.53;52001.75;5070318;28;19942;-63
2023/06/14 08:31:06;;;;;;;;;;;;;;;-144.99;66.77;52028.22;5063330;28;19938;-62
2023/06/14 08:33:34;;;;;;;;;;;;;;;-144.99;67.10;52056.78;5062662;28;19975;-62
2023/06/14 08:36:16;;;;;;;;;;;;;;;-144.99;66.91;52048.63;5070390;28;20276;-62
2023/06/14 08:38:43;;;;;;;;;;;;;;;-144.99;67.60;52058.81;5068502;28;19948;-62
2023/06/14 08:41:13;;;;;;;;;;;;;;;-144.99;66.54;52042.50;5072926;28;20338;-62
2023/06/14 08:43:40;;;;;;;;;;;;;;;-144.99;66.42;52003.78;5074261;28;19942;-61
2023/06/14 08:46:22;;;;;;;;;;;;;;;-144.99;65.79;52032.31;5070035;28;20057;-63
2023/06/14 08:48:52;;;;;;;;;;;;;;;-144.99;65.47;52020.09;5073007;28;20391;-62
2023/06/14 08:51:21;;;;;;;;;;;;;;;-144.99;65.18;51995.63;5072942;28;20305;-63
2023/06/14 08:53:53;;;;;;;;;;;;;;;-144.99;64.78;52028.22;5073336;28;20165;-63
2023/06/14 08:56:20;;;;;;;;;;;;;;;-144.99;64.78;52024.16;5072532;28;20391;-63
2023/06/14 08:58:47;;;;;;;;;;;;;;;-144.99;64.12;52007.84;5066700;28;20289;-64
2023/06/14 09:01:21;;;;;;;;;;;;;;;-144.99;64.60;52001.75;5067566;28;19945;-62
2023/06/14 09:03:49;;;;;;;;;;;;;;;-144.99;64.66;52003.78;5080228;28;20100;-63
2023/06/14 09:06:18;;;;;;;;;;;;;;;-144.99;64.48;52028.22;5070533;28;20401;-62
2023/06/14 09:08:46;;;;;;;;;;;;;;;-144.99;64.14;52016.00;5075753;28;20376;-63
2023/06/14 09:11:14;;;;;;;;;;;;;;;-144.99;63.18;51963.03;5075908;28;20080;-62
2023/06/14 09:13:41;;;;;;;;;;;;;;;-144.99;63.89;52005.81;5072512;28;19940;-63
2023/06/14 09:16:16;;;;;;;;;;;;;;;-144.99;63.98;52040.47;5079313;28;19941;-62
2023/06/14 09:18:44;;;;;;;;;;;;;;;-144.99;64.62;52028.22;5078564;28;20286;-62
2023/06/14 09:21:11;;;;;;;;;;;;;;;-144.99;64.19;52048.63;5068016;28;20048;-63
2023/06/14 09:23:40;;;;;;;;;;;;;;;-144.99;64.22;52003.78;5068758;28;20106;-62
2023/06/14 09:26:10;;;;;;;;;;;;;;;-144.99;63.85;52024.16;5077748;28;20259;-62
2023/06/14 09:28:37;;;;;;;;;;;;;;;-144.99;63.23;51981.38;5077633;28;19950;-62
2023/06/14 09:31:20;;;;;;;;;;;;;;;-144.99;62.96;52016.00;5076718;28;20435;-62
2023/06/14 09:33:48;;;;;;;;;;;;;;;-144.99;62.51;51969.13;5076055;28;19944;-62
2023/06/14 09:36:16;;;;;;;;;;;;;;;-144.99;62.29;51971.16;5078296;28;19975;-62
2023/06/14 09:38:52;;;;;;;;;;;;;;;-144.99;61.96;51971.16;5075711;28;19943;-62
2023/06/14 09:41:22;;;;;;;;;;;;;;;-144.99;61.59;51963.03;5081936;28;20033;-63
2023/06/14 09:43:49;;;;;;;;;;;;;;;-144.99;61.63;52020.09;5079291;28;19974;-61
2023/06/14 09:46:16;;;;;;;;;;;;;;;-144.99;61.76;51979.31;5073624;28;20082;-62
2023/06/14 09:48:43;;;;;;;;;;;;;;;-144.99;60.81;51983.41;5072257;28;20323;-62
2023/06/14 09:51:10;;;;;;;;;;;;;;;-144.99;60.27;51934.50;5073385;28;19944;-63
2023/06/14 09:53:37;;;;;;;;;;;;;;;-144.99;60.27;51971.16;5080522;28;20004;-63
2023/06/14 09:56:23;;;;;;;;;;;;;;;-144.99;60.64;52005.81;5068684;28;20279;-61
2023/06/14 09:58:52;;;;;;;;;;;;;;;-144.99;60.75;51958.94;5076488;28;19975;-63
2023/06/14 10:01:19;;;;;;;;;;;;;;;-144.99;60.97;51958.94;5069829;28;19950;-63
2023/06/14 10:03:46;;;;;;;;;;;;;;;-144.99;60.72;51995.63;5074285;28;19958;-63
2023/06/14 10:06:13;;;;;;;;;;;;;;;-144.99;60.17;51938.56;5068543;28;19967;-63
2023/06/14 10:08:41;;;;;;;;;;;;;;;-144.99;60.34;51985.44;5077075;28;20056;-63
2023/06/14 10:11:22;;;;;;;;;;;;;;;-144.99;60.34;51954.88;5071310;28;19953;-63
2023/06/14 10:13:48;;;;;;;;;;;;;;;-144.99;60.23;51918.19;5072930;28;19950;-63
2023/06/14 10:16:18;;;;;;;;;;;;;;;-144.99;60.03;51938.56;5074502;28;19949;-63
2023/06/14 10:18:48;;;;;;;;;;;;;;;-144.99;60.02;51926.34;4723355;28;10000160;-63
2023/06/14 10:21:19;;;;;;;;;;;;;;;-144.99;59.72;51918.19;5072189;28;19955;-63
2023/06/14 10:23:47;;;;;;;;;;;;;;;-144.99;58.95;51934.50;5068441;28;19941;-63
2023/06/14 10:26:26;;;;;;;;;;;;;;;-144.99;58.74;51930.41;5067941;28;19964;-63
2023/06/14 10:28:59;;;;;;;;;;;;;;;-144.99;58.13;51930.41;5073774;28;20340;-63
2023/06/14 10:31:41;;;;;;;;;;;;;;;-144.99;58.38;51918.19;5074776;28;20440;-63
2023/06/14 10:34:07;;;;;;;;;;;;;;;-144.99;58.65;51934.50;5063551;28;19947;-63
2023/06/14 10:36:35;;;;;;;;;;;;;;;-144.99;58.19;51865.19;5070334;28;20445;-63
2023/06/14 10:39:04;;;;;;;;;;;;;;;-144.99;58.05;51914.09;5068231;28;19960;-63
2023/06/14 10:41:50;;;;;;;;;;;;;;;-144.99;57.68;51942.63;5078569;28;20381;-63
2023/06/14 10:44:40;;;;;;;;;;;;;;;-144.99;57.88;51954.88;5072771;28;19952;-63
2023/06/14 10:47:31;;;;;;;;;;;;;;;-144.99;58.49;51930.41;5080296;28;20423;-63
2023/06/14 10:49:59;;;;;;;;;;;;;;;-144.99;58.69;51942.63;5056838;28;19962;-63
2023/06/14 10:52:27;;;;;;;;;;;;;;;-144.99;58.56;51893.72;5079895;28;19968;-64
2023/06/14 10:54:59;;;;;;;;;;;;;;;-144.99;58.40;51930.41;5074319;28;19943;-64
2023/06/14 10:57:26;;;;;;;;;;;;;;;-144.99;57.93;51922.25;5075151;28;19952;-63
2023/06/14 10:59:55;;;;;;;;;;;;;;;-144.99;56.87;51873.34;5077169;28;20302;-63
2023/06/14 11:02:36;;;;;;;;;;;;;;;-144.99;57.44;51893.72;5077581;28;20413;-63
2023/06/14 11:05:06;;;;;;;;;;;;;;;-144.99;57.85;51926.34;5069733;28;19943;-63
2023/06/14 11:07:41;;;;;;;;;;;;;;;-144.99;57.28;51901.88;5072467;28;19946;-63
2023/06/14 11:10:18;;;;;;;;;;;;;;;-144.99;56.43;51852.97;5072620;28;20039;-64
2023/06/14 11:12:47;;;;;;;;;;;;;;;-144.99;56.90;51881.50;5075263;28;20349;-64
2023/06/14 11:15:16;;;;;;;;;;;;;;;-144.99;56.76;51946.72;5073069;28;19942;-64
2023/06/14 11:17:50;;;;;;;;;;;;;;;-144.99;56.88;51875.38;5078889;28;20458;-64
2023/06/14 11:20:18;;;;;;;;;;;;;;;-144.99;56.79;51893.72;5076156;28;19969;-63
2023/06/14 11:22:45;;;;;;;;;;;;;;;-144.99;56.97;51889.66;5074892;28;20645;-63
2023/06/14 11:25:12;;;;;;;;;;;;;;;-144.99;56.86;51863.16;5071096;28;19943;-63
2023/06/14 11:27:39;;;;;;;;;;;;;;;-144.99;56.69;51865.19;5071509;28;19949;-63
2023/06/14 11:30:08;;;;;;;;;;;;;;;-144.99;57.10;51934.50;5071153;28;19972;-63
2023/06/14 11:32:36;;;;;;;;;;;;;;;-144.99;56.92;51942.63;5075379;28;19961;-64
2023/06/14 11:35:04;;;;;;;;;;;;;;;-144.99;57.03;51985.44;5073159;28;19954;-64
2023/06/14 11:37:32;;;;;;;;;;;;;;;-144.99;57.18;51930.41;5073854;28;20431;-64
2023/06/14 11:39:59;;;;;;;;;;;;;;;-144.99;57.40;51889.66;5072576;28;19969;-64
2023/06/14 11:42:27;;;;;;;;;;;;;;;-144.99;57.38;51889.66;5070865;28;19943;-64
2023/06/14 11:44:54;;;;;;;;;;;;;;;-144.99;57.34;51936.53;5070002;28;20283;-64
2023/06/14 11:47:21;;;;;;;;;;;;;;;-144.99;57.15;51885.56;5073403;28;20330;-63
2023/06/14 11:49:49;;;;;;;;;;;;;;;-144.99;56.66;51871.31;5075190;28;20211;-64
2023/06/14 11:52:16;;;;;;;;;;;;;;;-144.99;56.92;51901.88;5072305;28;19990;-63
2023/06/14 11:54:43;;;;;;;;;;;;;;;-144.99;56.83;51928.38;5069296;28;19946;-64
2023/06/14 11:57:09;;;;;;;;;;;;;;;-144.99;56.87;51895.75;5078338;28;20359;-63
2023/06/14 11:59:39;;;;;;;;;;;;;;;-144.99;56.50;51914.09;5070087;28;20398;-63
2023/06/14 12:02:06;;;;;;;;;;;;;;;-144.99;56.36;51934.50;5070625;28;19941;-64
2023/06/14 12:04:32;;;;;;;;;;;;;;;-144.99;56.53;51975.25;5078968;28;19955;-64
2023/06/14 12:07:14;;;;;;;;;;;;;;;-144.99;56.03;51865.19;5080576;28;20061;-64
2023/06/14 12:09:43;;;;;;;;;;;;;;;-144.99;56.18;51857.03;5078979;28;19986;-64
2023/06/14 12:12:10;;;;;;;;;;;;;;;-144.99;55.96;51867.22;5067000;28;20058;-63
2023/06/14 12:14:37;;;;;;;;;;;;;;;-144.99;55.54;51885.56;5076184;28;19951;-63
2023/06/14 12:17:07;;;;;;;;;;;;;;;-144.99;56.29;51926.34;5080000;28;19950;-64
2023/06/14 12:19:34;;;;;;;;;;;;;;;-144.99;56.00;51942.63;5071988;28;20377;-64
2023/06/14 12:22:04;;;;;;;;;;;;;;;-144.99;56.39;51963.03;5072159;28;20053;-64
2023/06/14 12:24:33;;;;;;;;;;;;;;;-144.99;56.30;51926.34;5066305;28;19959;-64
2023/06/14 12:27:02;;;;;;;;;;;;;;;-144.99;56.54;51879.47;5072120;28;19959;-64
2023/06/14 12:29:29;;;;;;;;;;;;;;;-144.99;56.27;51905.97;5067571;28;19964;-63
2023/06/14 12:31:56;;;;;;;;;;;;;;;-144.99;56.42;51889.66;5066710;28;20387;-64